sensor_id;sensor_type;location;lat;lon;timestamp;temperature;humidity
8709;DHT22;4391;48.678;9.280;2024-02-23T00:01:04;5.20;56.80
8709;DHT22;4391;48.678;9.280;2024-02-23T00:03:31;5.20;63.10
8709;DHT22;4391;48.678;9.280;2024-02-23T00:06:00;5.30;53.90
8709;DHT22;4391;48.678;9.280;2024-02-23T00:08:26;5.30;47.10
8709;DHT22;4391;48.678;9.280;2024-02-23T00:10:53;5.30;65.90
8709;DHT22;4391;48.678;9.280;2024-02-23T00:13:23;5.30;64.00
8709;DHT22;4391;48.678;9.280;2024-02-23T00:15:50;5.30;60.10
8709;DHT22;4391;48.678;9.280;2024-02-23T00:18:17;5.30;49.30
8709;DHT22;4391;48.678;9.280;2024-02-23T00:20:44;5.30;47.80
8709;DHT22;4391;48.678;9.280;2024-02-23T00:23:12;5.30;59.40
8709;DHT22;4391;48.678;9.280;2024-02-23T00:25:39;5.30;48.30
8709;DHT22;4391;48.678;9.280;2024-02-23T00:28:06;5.30;40.60
8709;DHT22;4391;48.678;9.280;2024-02-23T00:30:35;5.40;23.70
8709;DHT22;4391;48.678;9.280;2024-02-23T00:33:02;5.30;44.90
8709;DHT22;4391;48.678;9.280;2024-02-23T00:35:29;5.30;36.40
8709;DHT22;4391;48.678;9.280;2024-02-23T00:37:56;5.40;35.10
8709;DHT22;4391;48.678;9.280;2024-02-23T00:40:24;5.40;25.20
8709;DHT22;4391;48.678;9.280;2024-02-23T00:42:51;5.40;29.70
8709;DHT22;4391;48.678;9.280;2024-02-23T00:45:18;5.40;16.70
8709;DHT22;4391;48.678;9.280;2024-02-23T00:47:45;5.40;20.70
8709;DHT22;4391;48.678;9.280;2024-02-23T00:50:13;5.40;1.00
8709;DHT22;4391;48.678;9.280;2024-02-23T00:52:40;5.40;1.00
8709;DHT22;4391;48.678;9.280;2024-02-23T00:55:07;5.40;1.00
8709;DHT22;4391;48.678;9.280;2024-02-23T00:57:36;5.50;1.00
8709;DHT22;4391;48.678;9.280;2024-02-23T01:00:03;5.50;1.00
8709;DHT22;4391;48.678;9.280;2024-02-23T01:02:31;5.50;1.00
8709;DHT22;4391;48.678;9.280;2024-02-23T01:04:59;5.50;1.00
8709;DHT22;4391;48.678;9.280;2024-02-23T01:07:26;5.40;16.70
8709;DHT22;4391;48.678;9.280;2024-02-23T01:09:53;5.40;27.10
8709;DHT22;4391;48.678;9.280;2024-02-23T01:12:20;5.40;42.60
8709;DHT22;4391;48.678;9.280;2024-02-23T01:14:48;5.40;45.50
8709;DHT22;4391;48.678;9.280;2024-02-23T01:17:15;5.40;56.90
8709;DHT22;4391;48.678;9.280;2024-02-23T01:19:43;5.40;61.30
8709;DHT22;4391;48.678;9.280;2024-02-23T01:22:10;5.30;72.40
8709;DHT22;4391;48.678;9.280;2024-02-23T01:24:37;5.30;69.60
8709;DHT22;4391;48.678;9.280;2024-02-23T01:27:04;5.30;56.10
8709;DHT22;4391;48.678;9.280;2024-02-23T01:29:31;5.10;48.80
8709;DHT22;4391;48.678;9.280;2024-02-23T01:31:59;5.20;50.80
8709;DHT22;4391;48.678;9.280;2024-02-23T01:34:26;5.10;57.10
8709;DHT22;4391;48.678;9.280;2024-02-23T01:36:53;5.10;45.10
8709;DHT22;4391;48.678;9.280;2024-02-23T01:39:20;5.10;43.50
8709;DHT22;4391;48.678;9.280;2024-02-23T01:41:47;5.00;42.60
8709;DHT22;4391;48.678;9.280;2024-02-23T01:44:14;5.00;53.90
8709;DHT22;4391;48.678;9.280;2024-02-23T01:46:42;4.90;71.80
8709;DHT22;4391;48.678;9.280;2024-02-23T01:49:11;4.80;78.20
8709;DHT22;4391;48.678;9.280;2024-02-23T01:51:38;4.70;79.80
8709;DHT22;4391;48.678;9.280;2024-02-23T01:54:05;4.60;83.90
8709;DHT22;4391;48.678;9.280;2024-02-23T01:56:33;4.60;90.80
8709;DHT22;4391;48.678;9.280;2024-02-23T01:59:02;4.50;92.30
8709;DHT22;4391;48.678;9.280;2024-02-23T02:01:30;4.40;86.50
8709;DHT22;4391;48.678;9.280;2024-02-23T02:03:58;4.40;85.30
8709;DHT22;4391;48.678;9.280;2024-02-23T02:06:26;4.30;90.70
8709;DHT22;4391;48.678;9.280;2024-02-23T02:08:53;4.30;88.20
8709;DHT22;4391;48.678;9.280;2024-02-23T02:11:20;4.20;82.60
8709;DHT22;4391;48.678;9.280;2024-02-23T02:13:47;4.20;78.20
8709;DHT22;4391;48.678;9.280;2024-02-23T02:16:14;4.20;72.50
8709;DHT22;4391;48.678;9.280;2024-02-23T02:18:41;4.20;78.70
8709;DHT22;4391;48.678;9.280;2024-02-23T02:21:13;4.20;76.50
8709;DHT22;4391;48.678;9.280;2024-02-23T02:23:41;4.30;65.60
8709;DHT22;4391;48.678;9.280;2024-02-23T02:26:08;4.30;62.70
8709;DHT22;4391;48.678;9.280;2024-02-23T02:28:35;4.30;67.90
8709;DHT22;4391;48.678;9.280;2024-02-23T02:31:02;4.30;73.40
8709;DHT22;4391;48.678;9.280;2024-02-23T02:33:29;4.20;74.30
8709;DHT22;4391;48.678;9.280;2024-02-23T02:35:56;4.30;69.20
8709;DHT22;4391;48.678;9.280;2024-02-23T02:38:23;4.30;57.50
8709;DHT22;4391;48.678;9.280;2024-02-23T02:40:51;4.20;63.30
8709;DHT22;4391;48.678;9.280;2024-02-23T02:43:18;4.30;65.30
8709;DHT22;4391;48.678;9.280;2024-02-23T02:45:45;4.30;56.10
8709;DHT22;4391;48.678;9.280;2024-02-23T02:48:11;4.30;60.20
8709;DHT22;4391;48.678;9.280;2024-02-23T02:50:38;4.30;58.40
8709;DHT22;4391;48.678;9.280;2024-02-23T02:53:05;4.30;50.70
8709;DHT22;4391;48.678;9.280;2024-02-23T02:55:32;4.30;53.10
8709;DHT22;4391;48.678;9.280;2024-02-23T02:58:00;4.30;48.40
8709;DHT22;4391;48.678;9.280;2024-02-23T03:00:30;4.30;50.40
8709;DHT22;4391;48.678;9.280;2024-02-23T03:02:57;4.30;46.30
8709;DHT22;4391;48.678;9.280;2024-02-23T03:05:24;4.30;47.30
8709;DHT22;4391;48.678;9.280;2024-02-23T03:07:51;4.30;41.50
8709;DHT22;4391;48.678;9.280;2024-02-23T03:10:18;4.40;39.60
8709;DHT22;4391;48.678;9.280;2024-02-23T03:12:45;4.30;45.20
8709;DHT22;4391;48.678;9.280;2024-02-23T03:15:13;4.30;41.50
8709;DHT22;4391;48.678;9.280;2024-02-23T03:17:40;4.30;54.50
8709;DHT22;4391;48.678;9.280;2024-02-23T03:20:08;4.30;49.00
8709;DHT22;4391;48.678;9.280;2024-02-23T03:22:36;4.30;51.60
8709;DHT22;4391;48.678;9.280;2024-02-23T03:25:04;4.30;48.30
8709;DHT22;4391;48.678;9.280;2024-02-23T03:27:34;4.30;30.90
8709;DHT22;4391;48.678;9.280;2024-02-23T03:30:03;4.30;40.60
8709;DHT22;4391;48.678;9.280;2024-02-23T03:32:31;4.30;48.40
8709;DHT22;4391;48.678;9.280;2024-02-23T03:35:02;4.30;50.60
8709;DHT22;4391;48.678;9.280;2024-02-23T03:37:29;4.30;52.30
8709;DHT22;4391;48.678;9.280;2024-02-23T03:39:56;4.30;53.30
8709;DHT22;4391;48.678;9.280;2024-02-23T03:42:23;4.30;49.40
8709;DHT22;4391;48.678;9.280;2024-02-23T03:44:50;4.30;53.10
8709;DHT22;4391;48.678;9.280;2024-02-23T03:47:17;4.30;53.10
8709;DHT22;4391;48.678;9.280;2024-02-23T03:49:45;4.30;51.30
8709;DHT22;4391;48.678;9.280;2024-02-23T03:52:12;4.30;48.40
8709;DHT22;4391;48.678;9.280;2024-02-23T03:54:39;4.30;41.70
8709;DHT22;4391;48.678;9.280;2024-02-23T03:57:06;4.30;45.20
8709;DHT22;4391;48.678;9.280;2024-02-23T03:59:35;4.30;47.60
8709;DHT22;4391;48.678;9.280;2024-02-23T04:02:02;4.30;46.60
8709;DHT22;4391;48.678;9.280;2024-02-23T04:04:29;4.30;47.80
8709;DHT22;4391;48.678;9.280;2024-02-23T04:06:57;4.30;43.90
8709;DHT22;4391;48.678;9.280;2024-02-23T04:09:24;4.30;30.90
8709;DHT22;4391;48.678;9.280;2024-02-23T04:11:51;4.20;43.50
8709;DHT22;4391;48.678;9.280;2024-02-23T04:14:18;4.30;46.20
8709;DHT22;4391;48.678;9.280;2024-02-23T04:16:45;4.30;47.30
8709;DHT22;4391;48.678;9.280;2024-02-23T04:19:12;4.30;40.80
8709;DHT22;4391;48.678;9.280;2024-02-23T04:21:39;4.30;38.70
8709;DHT22;4391;48.678;9.280;2024-02-23T04:24:07;4.20;28.30
8709;DHT22;4391;48.678;9.280;2024-02-23T04:26:34;4.20;39.40
8709;DHT22;4391;48.678;9.280;2024-02-23T04:29:01;4.10;43.90
8709;DHT22;4391;48.678;9.280;2024-02-23T04:31:27;4.10;34.60
8709;DHT22;4391;48.678;9.280;2024-02-23T04:33:54;4.10;34.80
8709;DHT22;4391;48.678;9.280;2024-02-23T04:36:21;4.00;12.90
8709;DHT22;4391;48.678;9.280;2024-02-23T04:38:48;4.10;1.00
8709;DHT22;4391;48.678;9.280;2024-02-23T04:41:19;4.10;1.00
8709;DHT22;4391;48.678;9.280;2024-02-23T04:43:46;4.00;1.00
8709;DHT22;4391;48.678;9.280;2024-02-23T04:46:13;3.90;1.00
8709;DHT22;4391;48.678;9.280;2024-02-23T04:48:41;3.90;19.30
8709;DHT22;4391;48.678;9.280;2024-02-23T04:51:08;3.80;37.20
8709;DHT22;4391;48.678;9.280;2024-02-23T04:53:36;3.70;50.50
8709;DHT22;4391;48.678;9.280;2024-02-23T04:56:04;3.60;80.90
8709;DHT22;4391;48.678;9.280;2024-02-23T04:58:32;3.50;90.20
8709;DHT22;4391;48.678;9.280;2024-02-23T05:00:59;3.50;97.50
8709;DHT22;4391;48.678;9.280;2024-02-23T05:03:26;3.40;99.90
8709;DHT22;4391;48.678;9.280;2024-02-23T05:05:53;3.50;99.90
8709;DHT22;4391;48.678;9.280;2024-02-23T05:08:20;3.50;99.90
8709;DHT22;4391;48.678;9.280;2024-02-23T05:10:47;3.60;99.90
8709;DHT22;4391;48.678;9.280;2024-02-23T05:13:14;3.60;99.90
8709;DHT22;4391;48.678;9.280;2024-02-23T05:15:42;3.60;99.90
8709;DHT22;4391;48.678;9.280;2024-02-23T05:18:09;3.60;99.90
8709;DHT22;4391;48.678;9.280;2024-02-23T05:20:36;3.50;99.90
8709;DHT22;4391;48.678;9.280;2024-02-23T05:23:03;3.50;99.90
8709;DHT22;4391;48.678;9.280;2024-02-23T05:25:30;3.50;99.90
8709;DHT22;4391;48.678;9.280;2024-02-23T05:27:57;3.50;99.90
8709;DHT22;4391;48.678;9.280;2024-02-23T05:30:23;3.50;99.90
8709;DHT22;4391;48.678;9.280;2024-02-23T05:32:53;3.40;99.90
8709;DHT22;4391;48.678;9.280;2024-02-23T05:35:20;3.50;99.90
8709;DHT22;4391;48.678;9.280;2024-02-23T05:37:47;3.40;99.90
8709;DHT22;4391;48.678;9.280;2024-02-23T05:40:15;3.40;99.90
8709;DHT22;4391;48.678;9.280;2024-02-23T05:42:42;3.40;99.90
8709;DHT22;4391;48.678;9.280;2024-02-23T05:45:09;3.40;99.90
8709;DHT22;4391;48.678;9.280;2024-02-23T05:47:36;3.40;99.90
8709;DHT22;4391;48.678;9.280;2024-02-23T05:50:05;3.40;99.90
8709;DHT22;4391;48.678;9.280;2024-02-23T05:52:33;3.40;99.90
8709;DHT22;4391;48.678;9.280;2024-02-23T05:55:00;3.40;99.90
8709;DHT22;4391;48.678;9.280;2024-02-23T05:57:27;3.40;99.90
8709;DHT22;4391;48.678;9.280;2024-02-23T05:59:54;3.40;99.90
8709;DHT22;4391;48.678;9.280;2024-02-23T06:02:22;3.30;99.90
8709;DHT22;4391;48.678;9.280;2024-02-23T06:04:49;3.30;99.90
8709;DHT22;4391;48.678;9.280;2024-02-23T06:07:17;3.30;99.90
8709;DHT22;4391;48.678;9.280;2024-02-23T06:09:46;3.30;99.90
8709;DHT22;4391;48.678;9.280;2024-02-23T06:12:13;3.30;99.90
8709;DHT22;4391;48.678;9.280;2024-02-23T06:14:39;3.40;99.90
8709;DHT22;4391;48.678;9.280;2024-02-23T06:17:06;3.40;99.90
8709;DHT22;4391;48.678;9.280;2024-02-23T06:19:34;3.40;98.90
8709;DHT22;4391;48.678;9.280;2024-02-23T06:22:00;3.50;94.10
8709;DHT22;4391;48.678;9.280;2024-02-23T06:24:29;3.60;74.90
8709;DHT22;4391;48.678;9.280;2024-02-23T06:26:57;3.60;58.40
8709;DHT22;4391;48.678;9.280;2024-02-23T06:29:26;3.60;39.60
8709;DHT22;4391;48.678;9.280;2024-02-23T06:31:53;3.70;39.30
8709;DHT22;4391;48.678;9.280;2024-02-23T06:34:20;3.70;12.50
8709;DHT22;4391;48.678;9.280;2024-02-23T06:36:47;3.80;1.00
8709;DHT22;4391;48.678;9.280;2024-02-23T06:39:14;3.80;1.00
8709;DHT22;4391;48.678;9.280;2024-02-23T06:41:45;3.80;1.00
8709;DHT22;4391;48.678;9.280;2024-02-23T06:44:12;3.90;1.00
8709;DHT22;4391;48.678;9.280;2024-02-23T06:46:38;3.80;1.00
8709;DHT22;4391;48.678;9.280;2024-02-23T06:49:06;3.90;1.00
8709;DHT22;4391;48.678;9.280;2024-02-23T06:51:33;3.90;1.00
8709;DHT22;4391;48.678;9.280;2024-02-23T06:54:00;3.90;1.00
8709;DHT22;4391;48.678;9.280;2024-02-23T06:56:27;3.90;1.00
8709;DHT22;4391;48.678;9.280;2024-02-23T06:58:55;4.00;1.00
8709;DHT22;4391;48.678;9.280;2024-02-23T07:01:22;4.00;1.00
8709;DHT22;4391;48.678;9.280;2024-02-23T07:03:49;4.00;1.00
8709;DHT22;4391;48.678;9.280;2024-02-23T07:06:16;4.00;1.00
8709;DHT22;4391;48.678;9.280;2024-02-23T07:08:44;4.00;1.00
8709;DHT22;4391;48.678;9.280;2024-02-23T07:11:11;4.10;1.00
8709;DHT22;4391;48.678;9.280;2024-02-23T07:13:38;4.10;1.00
8709;DHT22;4391;48.678;9.280;2024-02-23T07:16:07;4.10;1.00
8709;DHT22;4391;48.678;9.280;2024-02-23T07:18:34;4.10;1.00
8709;DHT22;4391;48.678;9.280;2024-02-23T07:21:01;4.10;1.00
8709;DHT22;4391;48.678;9.280;2024-02-23T07:23:28;4.10;1.00
8709;DHT22;4391;48.678;9.280;2024-02-23T07:25:55;4.00;1.00
8709;DHT22;4391;48.678;9.280;2024-02-23T07:28:22;4.20;1.00
8709;DHT22;4391;48.678;9.280;2024-02-23T07:30:48;4.20;1.00
8709;DHT22;4391;48.678;9.280;2024-02-23T07:33:17;4.30;99.90
8709;DHT22;4391;48.678;9.280;2024-02-23T07:35:44;4.40;99.90
8709;DHT22;4391;48.678;9.280;2024-02-23T07:38:11;4.50;99.90
8709;DHT22;4391;48.678;9.280;2024-02-23T07:40:38;4.60;99.90
8709;DHT22;4391;48.678;9.280;2024-02-23T07:43:05;4.70;99.90
8709;DHT22;4391;48.678;9.280;2024-02-23T07:45:32;4.60;99.90
8709;DHT22;4391;48.678;9.280;2024-02-23T07:48:00;4.60;94.60
8709;DHT22;4391;48.678;9.280;2024-02-23T07:50:31;4.70;99.90
8709;DHT22;4391;48.678;9.280;2024-02-23T07:52:58;4.70;99.90
8709;DHT22;4391;48.678;9.280;2024-02-23T07:55:25;4.70;99.90
8709;DHT22;4391;48.678;9.280;2024-02-23T07:57:52;4.70;1.00
8709;DHT22;4391;48.678;9.280;2024-02-23T08:00:23;4.60;99.90
8709;DHT22;4391;48.678;9.280;2024-02-23T08:02:49;4.60;99.90
8709;DHT22;4391;48.678;9.280;2024-02-23T08:05:16;4.60;1.00
8709;DHT22;4391;48.678;9.280;2024-02-23T08:07:45;4.70;1.00
8709;DHT22;4391;48.678;9.280;2024-02-23T08:10:12;4.70;1.00
8709;DHT22;4391;48.678;9.280;2024-02-23T08:12:39;5.00;99.90
8709;DHT22;4391;48.678;9.280;2024-02-23T08:15:07;4.70;99.90
8709;DHT22;4391;48.678;9.280;2024-02-23T08:17:33;4.70;99.90
8709;DHT22;4391;48.678;9.280;2024-02-23T08:20:00;4.80;99.90
8709;DHT22;4391;48.678;9.280;2024-02-23T08:22:27;4.80;99.90
8709;DHT22;4391;48.678;9.280;2024-02-23T08:24:55;4.90;1.00
8709;DHT22;4391;48.678;9.280;2024-02-23T08:27:22;4.90;99.90
8709;DHT22;4391;48.678;9.280;2024-02-23T08:29:49;5.00;99.90
8709;DHT22;4391;48.678;9.280;2024-02-23T08:32:16;5.10;99.90
8709;DHT22;4391;48.678;9.280;2024-02-23T08:34:44;5.10;1.00
8709;DHT22;4391;48.678;9.280;2024-02-23T08:37:11;5.10;1.00
8709;DHT22;4391;48.678;9.280;2024-02-23T08:39:38;5.10;1.00
8709;DHT22;4391;48.678;9.280;2024-02-23T08:42:07;5.10;1.00
8709;DHT22;4391;48.678;9.280;2024-02-23T08:44:33;5.20;99.90
8709;DHT22;4391;48.678;9.280;2024-02-23T08:47:00;5.20;1.00
8709;DHT22;4391;48.678;9.280;2024-02-23T08:49:28;5.30;99.90
8709;DHT22;4391;48.678;9.280;2024-02-23T08:51:55;5.30;1.00
8709;DHT22;4391;48.678;9.280;2024-02-23T08:54:23;5.30;1.00
8709;DHT22;4391;48.678;9.280;2024-02-23T08:56:50;5.40;99.90
8709;DHT22;4391;48.678;9.280;2024-02-23T08:59:19;5.50;99.90
8709;DHT22;4391;48.678;9.280;2024-02-23T09:01:45;5.50;99.90
8709;DHT22;4391;48.678;9.280;2024-02-23T09:04:13;5.50;1.00
8709;DHT22;4391;48.678;9.280;2024-02-23T09:06:40;5.60;99.90
8709;DHT22;4391;48.678;9.280;2024-02-23T09:09:07;5.60;99.90
8709;DHT22;4391;48.678;9.280;2024-02-23T09:11:35;5.60;99.90
8709;DHT22;4391;48.678;9.280;2024-02-23T09:14:02;5.70;1.00
8709;DHT22;4391;48.678;9.280;2024-02-23T09:16:31;5.70;1.00
8709;DHT22;4391;48.678;9.280;2024-02-23T09:18:58;5.80;1.00
8709;DHT22;4391;48.678;9.280;2024-02-23T09:21:24;5.90;1.00
8709;DHT22;4391;48.678;9.280;2024-02-23T09:23:51;6.00;1.00
8709;DHT22;4391;48.678;9.280;2024-02-23T09:26:18;5.90;99.90
8709;DHT22;4391;48.678;9.280;2024-02-23T09:28:45;6.10;99.90
8709;DHT22;4391;48.678;9.280;2024-02-23T09:31:12;6.10;99.90
8709;DHT22;4391;48.678;9.280;2024-02-23T09:33:40;6.00;99.90
8709;DHT22;4391;48.678;9.280;2024-02-23T09:36:07;6.00;99.90
8709;DHT22;4391;48.678;9.280;2024-02-23T09:38:35;6.10;99.90
8709;DHT22;4391;48.678;9.280;2024-02-23T09:41:02;6.10;99.90
8709;DHT22;4391;48.678;9.280;2024-02-23T09:43:30;6.30;99.90
8709;DHT22;4391;48.678;9.280;2024-02-23T09:45:58;6.50;75.40
8709;DHT22;4391;48.678;9.280;2024-02-23T09:48:26;6.40;1.00
8709;DHT22;4391;48.678;9.280;2024-02-23T09:50:55;6.50;1.00
8709;DHT22;4391;48.678;9.280;2024-02-23T09:53:24;6.70;1.00
8709;DHT22;4391;48.678;9.280;2024-02-23T09:55:51;6.80;1.00
8709;DHT22;4391;48.678;9.280;2024-02-23T09:58:20;6.90;1.00
8709;DHT22;4391;48.678;9.280;2024-02-23T10:00:47;7.00;1.00
8709;DHT22;4391;48.678;9.280;2024-02-23T10:03:14;7.10;1.00
8709;DHT22;4391;48.678;9.280;2024-02-23T10:05:41;7.10;1.00
8709;DHT22;4391;48.678;9.280;2024-02-23T10:08:11;7.00;1.00
8709;DHT22;4391;48.678;9.280;2024-02-23T10:10:38;7.00;1.00
8709;DHT22;4391;48.678;9.280;2024-02-23T10:13:05;7.10;1.00
8709;DHT22;4391;48.678;9.280;2024-02-23T10:15:32;7.10;1.00
8709;DHT22;4391;48.678;9.280;2024-02-23T10:17:59;7.00;1.00
8709;DHT22;4391;48.678;9.280;2024-02-23T10:20:26;7.00;1.00
8709;DHT22;4391;48.678;9.280;2024-02-23T10:22:53;7.10;1.00
8709;DHT22;4391;48.678;9.280;2024-02-23T10:25:21;7.20;1.00
8709;DHT22;4391;48.678;9.280;2024-02-23T10:27:48;7.20;1.00
8709;DHT22;4391;48.678;9.280;2024-02-23T10:30:15;7.20;1.00
8709;DHT22;4391;48.678;9.280;2024-02-23T10:32:42;7.30;1.00
8709;DHT22;4391;48.678;9.280;2024-02-23T10:35:13;7.40;1.00
8709;DHT22;4391;48.678;9.280;2024-02-23T10:37:42;7.40;1.00
8709;DHT22;4391;48.678;9.280;2024-02-23T10:40:11;7.40;1.00
8709;DHT22;4391;48.678;9.280;2024-02-23T10:42:43;7.40;1.00
8709;DHT22;4391;48.678;9.280;2024-02-23T10:45:13;7.40;1.00
8709;DHT22;4391;48.678;9.280;2024-02-23T10:47:41;7.50;1.00
8709;DHT22;4391;48.678;9.280;2024-02-23T10:50:09;7.60;1.00
8709;DHT22;4391;48.678;9.280;2024-02-23T10:52:40;7.40;1.00
8709;DHT22;4391;48.678;9.280;2024-02-23T10:55:09;7.40;1.00
8709;DHT22;4391;48.678;9.280;2024-02-23T10:57:36;7.50;1.00
8709;DHT22;4391;48.678;9.280;2024-02-23T11:00:07;7.50;1.00
8709;DHT22;4391;48.678;9.280;2024-02-23T11:02:38;7.60;1.00
8709;DHT22;4391;48.678;9.280;2024-02-23T11:05:06;7.80;1.00
8709;DHT22;4391;48.678;9.280;2024-02-23T11:07:38;7.90;1.00
8709;DHT22;4391;48.678;9.280;2024-02-23T11:10:06;8.00;1.00
8709;DHT22;4391;48.678;9.280;2024-02-23T11:12:35;8.10;1.00
8709;DHT22;4391;48.678;9.280;2024-02-23T11:15:02;8.20;99.90
8709;DHT22;4391;48.678;9.280;2024-02-23T11:17:32;8.00;99.90
8709;DHT22;4391;48.678;9.280;2024-02-23T11:20:02;7.80;99.90
8709;DHT22;4391;48.678;9.280;2024-02-23T11:22:31;7.70;99.90
8709;DHT22;4391;48.678;9.280;2024-02-23T11:25:00;7.60;99.90
8709;DHT22;4391;48.678;9.280;2024-02-23T11:27:31;7.50;99.90
8709;DHT22;4391;48.678;9.280;2024-02-23T11:30:03;7.60;99.90
8709;DHT22;4391;48.678;9.280;2024-02-23T11:32:40;7.60;99.90
8709;DHT22;4391;48.678;9.280;2024-02-23T11:35:08;7.60;99.90
8709;DHT22;4391;48.678;9.280;2024-02-23T11:37:47;7.70;99.90
8709;DHT22;4391;48.678;9.280;2024-02-23T11:40:14;7.70;99.90
8709;DHT22;4391;48.678;9.280;2024-02-23T11:42:41;7.70;99.90
8709;DHT22;4391;48.678;9.280;2024-02-23T11:45:09;7.70;99.90
8709;DHT22;4391;48.678;9.280;2024-02-23T11:47:36;7.80;99.90
8709;DHT22;4391;48.678;9.280;2024-02-23T11:50:08;7.90;99.90
8709;DHT22;4391;48.678;9.280;2024-02-23T11:52:35;7.80;99.90
8709;DHT22;4391;48.678;9.280;2024-02-23T11:55:03;8.00;99.90
8709;DHT22;4391;48.678;9.280;2024-02-23T11:57:31;8.10;99.90
8709;DHT22;4391;48.678;9.280;2024-02-23T11:59:57;8.20;99.90
8709;DHT22;4391;48.678;9.280;2024-02-23T12:02:24;8.20;99.90
8709;DHT22;4391;48.678;9.280;2024-02-23T12:04:51;8.10;99.90
8709;DHT22;4391;48.678;9.280;2024-02-23T12:07:20;8.00;99.90
8709;DHT22;4391;48.678;9.280;2024-02-23T12:09:47;8.10;99.90
8709;DHT22;4391;48.678;9.280;2024-02-23T12:12:15;8.40;99.90
8709;DHT22;4391;48.678;9.280;2024-02-23T12:14:42;8.70;99.90
8709;DHT22;4391;48.678;9.280;2024-02-23T12:17:09;8.70;99.90
8709;DHT22;4391;48.678;9.280;2024-02-23T12:19:38;8.60;99.90
8709;DHT22;4391;48.678;9.280;2024-02-23T12:22:05;8.60;99.90
8709;DHT22;4391;48.678;9.280;2024-02-23T12:24:34;8.60;99.90
8709;DHT22;4391;48.678;9.280;2024-02-23T12:27:01;8.70;99.90
8709;DHT22;4391;48.678;9.280;2024-02-23T12:29:28;8.60;99.90
8709;DHT22;4391;48.678;9.280;2024-02-23T12:32:03;8.50;99.90
8709;DHT22;4391;48.678;9.280;2024-02-23T12:34:30;8.70;99.90
8709;DHT22;4391;48.678;9.280;2024-02-23T12:36:56;8.70;99.90
8709;DHT22;4391;48.678;9.280;2024-02-23T12:39:23;8.70;99.90
8709;DHT22;4391;48.678;9.280;2024-02-23T12:41:51;8.70;99.90
8709;DHT22;4391;48.678;9.280;2024-02-23T12:44:18;8.90;99.90
8709;DHT22;4391;48.678;9.280;2024-02-23T12:46:45;9.00;99.90
8709;DHT22;4391;48.678;9.280;2024-02-23T12:49:12;9.20;99.90
8709;DHT22;4391;48.678;9.280;2024-02-23T12:51:39;9.30;99.90
8709;DHT22;4391;48.678;9.280;2024-02-23T12:54:06;9.20;99.90
8709;DHT22;4391;48.678;9.280;2024-02-23T12:56:33;9.20;99.90
8709;DHT22;4391;48.678;9.280;2024-02-23T12:59:02;9.20;99.90
8709;DHT22;4391;48.678;9.280;2024-02-23T13:01:29;9.20;99.90
8709;DHT22;4391;48.678;9.280;2024-02-23T13:03:57;9.10;99.90
8709;DHT22;4391;48.678;9.280;2024-02-23T13:06:24;9.30;99.90
8709;DHT22;4391;48.678;9.280;2024-02-23T13:08:51;9.70;99.90
8709;DHT22;4391;48.678;9.280;2024-02-23T13:11:18;9.80;99.90
8709;DHT22;4391;48.678;9.280;2024-02-23T13:13:44;9.70;99.90
8709;DHT22;4391;48.678;9.280;2024-02-23T13:16:13;9.60;99.90
8709;DHT22;4391;48.678;9.280;2024-02-23T13:18:40;9.60;99.90
8709;DHT22;4391;48.678;9.280;2024-02-23T13:21:07;9.60;99.90
8709;DHT22;4391;48.678;9.280;2024-02-23T13:23:34;9.90;99.90
8709;DHT22;4391;48.678;9.280;2024-02-23T13:26:02;9.90;99.90
8709;DHT22;4391;48.678;9.280;2024-02-23T13:28:29;9.70;99.90
8709;DHT22;4391;48.678;9.280;2024-02-23T13:30:56;9.50;99.90
8709;DHT22;4391;48.678;9.280;2024-02-23T13:33:24;9.30;99.90
8709;DHT22;4391;48.678;9.280;2024-02-23T13:35:52;9.40;99.90
8709;DHT22;4391;48.678;9.280;2024-02-23T13:38:19;9.50;99.90
8709;DHT22;4391;48.678;9.280;2024-02-23T13:40:45;9.60;99.90
8709;DHT22;4391;48.678;9.280;2024-02-23T13:43:12;9.70;99.90
8709;DHT22;4391;48.678;9.280;2024-02-23T13:45:48;9.60;99.90
8709;DHT22;4391;48.678;9.280;2024-02-23T13:48:16;9.60;99.90
8709;DHT22;4391;48.678;9.280;2024-02-23T13:50:46;9.50;99.90
8709;DHT22;4391;48.678;9.280;2024-02-23T13:53:13;9.50;99.90
8709;DHT22;4391;48.678;9.280;2024-02-23T13:55:40;9.40;99.90
8709;DHT22;4391;48.678;9.280;2024-02-23T13:58:08;9.30;99.90
8709;DHT22;4391;48.678;9.280;2024-02-23T14:00:34;9.40;99.90
8709;DHT22;4391;48.678;9.280;2024-02-23T14:03:01;9.40;99.90
8709;DHT22;4391;48.678;9.280;2024-02-23T14:05:28;9.30;99.90
8709;DHT22;4391;48.678;9.280;2024-02-23T14:07:56;9.20;99.90
8709;DHT22;4391;48.678;9.280;2024-02-23T14:10:23;9.00;99.90
8709;DHT22;4391;48.678;9.280;2024-02-23T14:12:50;9.00;99.90
8709;DHT22;4391;48.678;9.280;2024-02-23T14:15:17;9.10;99.90
8709;DHT22;4391;48.678;9.280;2024-02-23T14:17:44;9.30;99.90
8709;DHT22;4391;48.678;9.280;2024-02-23T14:20:11;9.80;99.90
8709;DHT22;4391;48.678;9.280;2024-02-23T14:22:38;10.50;99.90
8709;DHT22;4391;48.678;9.280;2024-02-23T14:25:07;11.10;99.90
8709;DHT22;4391;48.678;9.280;2024-02-23T14:27:35;11.30;99.90
8709;DHT22;4391;48.678;9.280;2024-02-23T14:30:02;11.20;99.90
8709;DHT22;4391;48.678;9.280;2024-02-23T14:32:29;10.70;99.90
8709;DHT22;4391;48.678;9.280;2024-02-23T14:34:56;10.10;99.90
8709;DHT22;4391;48.678;9.280;2024-02-23T14:37:23;9.60;99.90
8709;DHT22;4391;48.678;9.280;2024-02-23T14:39:50;9.40;99.90
8709;DHT22;4391;48.678;9.280;2024-02-23T14:42:19;9.30;99.90
8709;DHT22;4391;48.678;9.280;2024-02-23T14:44:45;9.50;99.90
8709;DHT22;4391;48.678;9.280;2024-02-23T14:47:12;9.90;99.90
8709;DHT22;4391;48.678;9.280;2024-02-23T14:49:39;10.20;99.90
8709;DHT22;4391;48.678;9.280;2024-02-23T14:52:06;9.80;99.90
8709;DHT22;4391;48.678;9.280;2024-02-23T14:54:33;9.50;99.90
8709;DHT22;4391;48.678;9.280;2024-02-23T14:57:02;9.30;99.90
8709;DHT22;4391;48.678;9.280;2024-02-23T14:59:30;9.10;99.90
8709;DHT22;4391;48.678;9.280;2024-02-23T15:02:01;9.10;99.90
8709;DHT22;4391;48.678;9.280;2024-02-23T15:04:28;8.90;99.90
8709;DHT22;4391;48.678;9.280;2024-02-23T15:06:55;9.00;99.90
8709;DHT22;4391;48.678;9.280;2024-02-23T15:09:22;9.10;99.90
8709;DHT22;4391;48.678;9.280;2024-02-23T15:11:49;9.30;99.90
8709;DHT22;4391;48.678;9.280;2024-02-23T15:14:16;9.40;99.90
8709;DHT22;4391;48.678;9.280;2024-02-23T15:16:44;9.40;99.90
8709;DHT22;4391;48.678;9.280;2024-02-23T15:19:11;9.60;99.90
8709;DHT22;4391;48.678;9.280;2024-02-23T15:21:38;10.10;99.90
8709;DHT22;4391;48.678;9.280;2024-02-23T15:24:06;10.40;99.90
8709;DHT22;4391;48.678;9.280;2024-02-23T15:26:33;10.70;99.90
8709;DHT22;4391;48.678;9.280;2024-02-23T15:29:00;11.00;99.90
8709;DHT22;4391;48.678;9.280;2024-02-23T15:31:28;11.10;99.90
8709;DHT22;4391;48.678;9.280;2024-02-23T15:33:57;10.70;99.90
8709;DHT22;4391;48.678;9.280;2024-02-23T15:36:25;10.50;99.90
8709;DHT22;4391;48.678;9.280;2024-02-23T15:38:52;10.20;99.90
8709;DHT22;4391;48.678;9.280;2024-02-23T15:41:24;9.90;99.90
8709;DHT22;4391;48.678;9.280;2024-02-23T15:43:50;9.70;99.90
8709;DHT22;4391;48.678;9.280;2024-02-23T15:46:17;9.30;99.90
8709;DHT22;4391;48.678;9.280;2024-02-23T15:48:44;9.00;99.90
8709;DHT22;4391;48.678;9.280;2024-02-23T15:51:12;8.80;99.90
8709;DHT22;4391;48.678;9.280;2024-02-23T15:53:40;8.60;99.90
8709;DHT22;4391;48.678;9.280;2024-02-23T15:56:07;8.50;99.90
8709;DHT22;4391;48.678;9.280;2024-02-23T15:58:34;8.40;99.90
8709;DHT22;4391;48.678;9.280;2024-02-23T16:01:01;8.40;99.90
8709;DHT22;4391;48.678;9.280;2024-02-23T16:03:27;8.40;99.90
8709;DHT22;4391;48.678;9.280;2024-02-23T16:05:54;8.40;99.90
8709;DHT22;4391;48.678;9.280;2024-02-23T16:08:38;8.40;99.90
8709;DHT22;4391;48.678;9.280;2024-02-23T16:11:06;8.20;99.90
8709;DHT22;4391;48.678;9.280;2024-02-23T16:13:35;8.10;99.90
8709;DHT22;4391;48.678;9.280;2024-02-23T16:16:02;8.00;99.90
8709;DHT22;4391;48.678;9.280;2024-02-23T16:18:28;7.90;99.90
8709;DHT22;4391;48.678;9.280;2024-02-23T16:20:56;7.80;99.90
8709;DHT22;4391;48.678;9.280;2024-02-23T16:23:24;7.80;99.90